sensor_id;sensor_type;location;lat;lon;timestamp;pressure;altitude;pressure_sealevel;temperature;humidity
76404;BME280;65232;48.358;2.122;2023-02-04T00:00:19;102883.59;;;8.78;83.12
76404;BME280;65232;48.358;2.122;2023-02-04T00:00:45;102888.94;;;8.78;83.24
76404;BME280;65232;48.358;2.122;2023-02-04T00:01:12;102885.41;;;8.77;83.07
76404;BME280;65232;48.358;2.122;2023-02-04T00:01:38;102887.28;;;8.75;82.95
76404;BME280;65232;48.358;2.122;2023-02-04T00:02:03;102882.66;;;8.79;83.27
76404;BME280;65232;48.358;2.122;2023-02-04T00:02:29;102886.78;;;8.88;83.16
76404;BME280;65232;48.358;2.122;2023-02-04T00:02:54;102884.91;;;8.90;82.81
76404;BME280;65232;48.358;2.122;2023-02-04T00:03:19;102885.09;;;8.85;82.74
76404;BME280;65232;48.358;2.122;2023-02-04T00:03:45;102887.81;;;8.83;82.68
76404;BME280;65232;48.358;2.122;2023-02-04T00:04:14;102885.34;;;8.79;82.86
76404;BME280;65232;48.358;2.122;2023-02-04T00:04:39;102886.31;;;8.76;83.00
76404;BME280;65232;48.358;2.122;2023-02-04T00:05:05;102883.75;;;8.75;83.09
76404;BME280;65232;48.358;2.122;2023-02-04T00:05:30;102883.88;;;8.72;83.21
76404;BME280;65232;48.358;2.122;2023-02-04T00:05:56;102886.59;;;8.70;83.34
76404;BME280;65232;48.358;2.122;2023-02-04T00:06:21;102887.59;;;8.68;83.31
76404;BME280;65232;48.358;2.122;2023-02-04T00:06:47;102888.53;;;8.67;83.35
76404;BME280;65232;48.358;2.122;2023-02-04T00:07:12;102884.97;;;8.66;83.54
76404;BME280;65232;48.358;2.122;2023-02-04T00:07:38;102887.78;;;8.63;83.49
76404;BME280;65232;48.358;2.122;2023-02-04T00:08:03;102885.09;;;8.63;83.41
76404;BME280;65232;48.358;2.122;2023-02-04T00:08:29;102885.09;;;8.63;83.72
76404;BME280;65232;48.358;2.122;2023-02-04T00:08:54;102888.59;;;8.65;83.50
76404;BME280;65232;48.358;2.122;2023-02-04T00:09:20;102881.44;;;8.66;83.60
76404;BME280;65232;48.358;2.122;2023-02-04T00:09:45;102886.72;;;8.67;83.62
76404;BME280;65232;48.358;2.122;2023-02-04T00:10:11;102884.06;;;8.67;83.72
76404;BME280;65232;48.358;2.122;2023-02-04T00:10:36;102884.06;;;8.67;83.43
76404;BME280;65232;48.358;2.122;2023-02-04T00:11:03;102884.81;;;8.71;83.44
76404;BME280;65232;48.358;2.122;2023-02-04T00:11:29;102878.66;;;8.69;83.55
76404;BME280;65232;48.358;2.122;2023-02-04T00:11:55;102883.00;;;8.71;83.50
76404;BME280;65232;48.358;2.122;2023-02-04T00:12:20;102878.47;;;8.73;83.54
76404;BME280;65232;48.358;2.122;2023-02-04T00:12:46;102881.38;;;8.67;83.43
76404;BME280;65232;48.358;2.122;2023-02-04T00:13:11;102886.59;;;8.70;83.74
76404;BME280;65232;48.358;2.122;2023-02-04T00:13:37;102885.78;;;8.68;83.35
76404;BME280;65232;48.358;2.122;2023-02-04T00:14:03;102880.44;;;8.68;83.31
76404;BME280;65232;48.358;2.122;2023-02-04T00:14:28;102878.66;;;8.69;83.51
76404;BME280;65232;48.358;2.122;2023-02-04T00:14:54;102881.19;;;8.72;83.48
76404;BME280;65232;48.358;2.122;2023-02-04T00:15:19;102882.19;;;8.69;83.41
76404;BME280;65232;48.358;2.122;2023-02-04T00:15:45;102882.25;;;8.68;83.30
76404;BME280;65232;48.358;2.122;2023-02-04T00:16:10;102883.19;;;8.67;83.64
76404;BME280;65232;48.358;2.122;2023-02-04T00:16:36;102886.84;;;8.64;83.48
76404;BME280;65232;48.358;2.122;2023-02-04T00:17:01;102883.31;;;8.64;83.59
76404;BME280;65232;48.358;2.122;2023-02-04T00:17:27;102877.91;;;8.65;83.65
76404;BME280;65232;48.358;2.122;2023-02-04T00:17:52;102876.16;;;8.64;83.95
76404;BME280;65232;48.358;2.122;2023-02-04T00:18:18;102877.91;;;8.65;83.84
76404;BME280;65232;48.358;2.122;2023-02-04T00:18:43;102883.25;;;8.65;83.91
76404;BME280;65232;48.358;2.122;2023-02-04T00:19:09;102876.09;;;8.66;83.92
76404;BME280;65232;48.358;2.122;2023-02-04T00:19:34;102877.84;;;8.67;83.68
76404;BME280;65232;48.358;2.122;2023-02-04T00:20:00;102876.00;;;8.69;83.76
76404;BME280;65232;48.358;2.122;2023-02-04T00:20:25;102870.53;;;8.72;83.79
76404;BME280;65232;48.358;2.122;2023-02-04T00:20:51;102872.31;;;8.71;83.60
76404;BME280;65232;48.358;2.122;2023-02-04T00:21:16;102871.59;;;8.68;83.77
76404;BME280;65232;48.358;2.122;2023-02-04T00:21:41;102873.38;;;8.67;83.68
76404;BME280;65232;48.358;2.122;2023-02-04T00:22:07;102870.59;;;8.70;83.57
76404;BME280;65232;48.358;2.122;2023-02-04T00:22:33;102866.00;;;8.74;83.35
76404;BME280;65232;48.358;2.122;2023-02-04T00:22:59;102873.44;;;8.66;83.67
76404;BME280;65232;48.358;2.122;2023-02-04T00:23:24;102868.91;;;8.68;83.66
76404;BME280;65232;48.358;2.122;2023-02-04T00:23:49;102871.69;;;8.65;83.75
76404;BME280;65232;48.358;2.122;2023-02-04T00:24:15;102868.28;;;8.61;83.74
76404;BME280;65232;48.358;2.122;2023-02-04T00:24:40;102867.41;;;8.61;83.87
76404;BME280;65232;48.358;2.122;2023-02-04T00:25:07;102865.63;;;8.61;83.83
76404;BME280;65232;48.358;2.122;2023-02-04T00:25:33;102859.50;;;8.59;83.75
76404;BME280;65232;48.358;2.122;2023-02-04T00:25:58;102868.38;;;8.60;83.81
76404;BME280;65232;48.358;2.122;2023-02-04T00:26:23;102870.09;;;8.61;83.81
76404;BME280;65232;48.358;2.122;2023-02-04T00:26:49;102859.56;;;8.58;83.79
76404;BME280;65232;48.358;2.122;2023-02-04T00:27:15;102865.00;;;8.55;84.01
76404;BME280;65232;48.358;2.122;2023-02-04T00:27:40;102871.09;;;8.58;84.01
76404;BME280;65232;48.358;2.122;2023-02-04T00:28:06;102866.63;;;8.59;83.95
76404;BME280;65232;48.358;2.122;2023-02-04T00:28:31;102869.16;;;8.62;83.83
76404;BME280;65232;48.358;2.122;2023-02-04T00:28:57;102872.63;;;8.64;83.91
76404;BME280;65232;48.358;2.122;2023-02-04T00:29:22;102870.78;;;8.66;83.87
76404;BME280;65232;48.358;2.122;2023-02-04T00:29:47;102869.09;;;8.63;83.68
76404;BME280;65232;48.358;2.122;2023-02-04T00:30:13;102869.84;;;8.67;83.49
76404;BME280;65232;48.358;2.122;2023-02-04T00:30:39;102869.84;;;8.67;83.79
76404;BME280;65232;48.358;2.122;2023-02-04T00:31:04;102868.97;;;8.66;83.69
76404;BME280;65232;48.358;2.122;2023-02-04T00:31:30;102876.03;;;8.67;83.67
76404;BME280;65232;48.358;2.122;2023-02-04T00:31:56;102869.78;;;8.68;83.65
76404;BME280;65232;48.358;2.122;2023-02-04T00:32:21;102874.13;;;8.71;83.77
76404;BME280;65232;48.358;2.122;2023-02-04T00:32:47;102869.84;;;8.67;83.73
76404;BME280;65232;48.358;2.122;2023-02-04T00:33:12;102869.78;;;8.68;83.69
76404;BME280;65232;48.358;2.122;2023-02-04T00:33:38;102872.50;;;8.67;83.52
76404;BME280;65232;48.358;2.122;2023-02-04T00:34:03;102871.13;;;8.78;83.48
76404;BME280;65232;48.358;2.122;2023-02-04T00:34:29;102875.66;;;8.76;83.30
76404;BME280;65232;48.358;2.122;2023-02-04T00:34:54;102871.47;;;8.71;83.42
76404;BME280;65232;48.358;2.122;2023-02-04T00:35:20;102876.91;;;8.68;83.57
76404;BME280;65232;48.358;2.122;2023-02-04T00:35:45;102872.38;;;8.70;83.56
76404;BME280;65232;48.358;2.122;2023-02-04T00:36:12;102878.41;;;8.75;83.46
76404;BME280;65232;48.358;2.122;2023-02-04T00:36:37;102875.00;;;8.71;83.58
76404;BME280;65232;48.358;2.122;2023-02-04T00:37:02;102870.66;;;8.69;83.79
76404;BME280;65232;48.358;2.122;2023-02-04T00:37:28;102869.84;;;8.67;83.69
76404;BME280;65232;48.358;2.122;2023-02-04T00:37:53;102880.50;;;8.67;83.54
76404;BME280;65232;48.358;2.122;2023-02-04T00:38:19;102879.59;;;8.68;83.71
76404;BME280;65232;48.358;2.122;2023-02-04T00:38:45;102868.97;;;8.66;83.83
76404;BME280;65232;48.358;2.122;2023-02-04T00:39:12;102867.16;;;8.67;83.55
76404;BME280;65232;48.358;2.122;2023-02-04T00:39:37;102875.19;;;8.67;83.53
76404;BME280;65232;48.358;2.122;2023-02-04T00:40:04;102866.31;;;8.66;83.43
76404;BME280;65232;48.358;2.122;2023-02-04T00:40:30;102872.50;;;8.67;83.65
76404;BME280;65232;48.358;2.122;2023-02-04T00:40:55;102870.72;;;8.67;83.63
76404;BME280;65232;48.358;2.122;2023-02-04T00:41:20;102870.66;;;8.69;83.82
76404;BME280;65232;48.358;2.122;2023-02-04T00:41:46;102874.25;;;8.68;83.73
76404;BME280;65232;48.358;2.122;2023-02-04T00:42:12;102871.59;;;8.68;83.67
76404;BME280;65232;48.358;2.122;2023-02-04T00:42:38;102868.78;;;8.71;83.51
76404;BME280;65232;48.358;2.122;2023-02-04T00:43:04;102872.91;;;8.78;83.56
76404;BME280;65232;48.358;2.122;2023-02-04T00:43:29;102866.59;;;8.80;83.30
76404;BME280;65232;48.358;2.122;2023-02-04T00:43:54;102863.91;;;8.80;82.98
76404;BME280;65232;48.358;2.122;2023-02-04T00:44:20;102871.94;;;8.80;83.15
76404;BME280;65232;48.358;2.122;2023-02-04T00:44:45;102871.00;;;8.81;83.00
76404;BME280;65232;48.358;2.122;2023-02-04T00:45:11;102872.91;;;8.78;83.19
76404;BME280;65232;48.358;2.122;2023-02-04T00:45:37;102873.06;;;8.75;83.30
76404;BME280;65232;48.358;2.122;2023-02-04T00:46:03;102869.53;;;8.74;83.14
76404;BME280;65232;48.358;2.122;2023-02-04T00:46:28;102870.47;;;8.73;83.30
76404;BME280;65232;48.358;2.122;2023-02-04T00:46:56;102875.88;;;8.72;83.45
76404;BME280;65232;48.358;2.122;2023-02-04T00:47:21;102873.25;;;8.70;83.43
76404;BME280;65232;48.358;2.122;2023-02-04T00:47:47;102877.53;;;8.74;83.41
76404;BME280;65232;48.358;2.122;2023-02-04T00:48:12;102871.19;;;8.77;83.47
76404;BME280;65232;48.358;2.122;2023-02-04T00:48:38;102870.06;;;8.82;83.15
76404;BME280;65232;48.358;2.122;2023-02-04T00:49:03;102875.41;;;8.82;83.22
76404;BME280;65232;48.358;2.122;2023-02-04T00:49:32;102874.53;;;8.82;83.04
76404;BME280;65232;48.358;2.122;2023-02-04T00:49:58;102875.34;;;8.84;83.10
76404;BME280;65232;48.358;2.122;2023-02-04T00:50:23;102880.44;;;8.90;82.65
76404;BME280;65232;48.358;2.122;2023-02-04T00:50:49;102870.59;;;8.91;82.39
76404;BME280;65232;48.358;2.122;2023-02-04T00:51:14;102876.75;;;8.93;82.57
76404;BME280;65232;48.358;2.122;2023-02-04T00:51:40;102868.94;;;8.88;82.76
76404;BME280;65232;48.358;2.122;2023-02-04T00:52:10;102875.34;;;8.84;83.06
76404;BME280;65232;48.358;2.122;2023-02-04T00:52:36;102873.53;;;8.84;82.74
76404;BME280;65232;48.358;2.122;2023-02-04T00:53:01;102869.13;;;8.83;82.92
76404;BME280;65232;48.358;2.122;2023-02-04T00:53:28;102872.44;;;8.90;82.63
76404;BME280;65232;48.358;2.122;2023-02-04T00:53:55;102867.09;;;8.90;82.63
76404;BME280;65232;48.358;2.122;2023-02-04T00:54:21;102866.22;;;8.90;82.59
76404;BME280;65232;48.358;2.122;2023-02-04T00:54:46;102871.63;;;8.88;82.69
76404;BME280;65232;48.358;2.122;2023-02-04T00:55:12;102873.47;;;8.86;82.95
76404;BME280;65232;48.358;2.122;2023-02-04T00:55:39;102866.41;;;8.85;82.92
76404;BME280;65232;48.358;2.122;2023-02-04T00:56:05;102863.69;;;8.87;83.01
76404;BME280;65232;48.358;2.122;2023-02-04T00:56:31;102865.19;;;8.92;82.64
76404;BME280;65232;48.358;2.122;2023-02-04T00:56:56;102876.22;;;8.84;82.74
76404;BME280;65232;48.358;2.122;2023-02-04T00:57:22;102866.41;;;8.85;82.87
76404;BME280;65232;48.358;2.122;2023-02-04T00:57:47;102867.94;;;8.91;82.85
76404;BME280;65232;48.358;2.122;2023-02-04T00:58:13;102865.34;;;8.89;82.75
76404;BME280;65232;48.358;2.122;2023-02-04T00:58:38;102871.56;;;8.90;82.74
76404;BME280;65232;48.358;2.122;2023-02-04T00:59:04;102871.63;;;8.88;82.67
76404;BME280;65232;48.358;2.122;2023-02-04T00:59:29;102871.75;;;8.85;82.89
76404;BME280;65232;48.358;2.122;2023-02-04T00:59:55;102869.13;;;8.83;83.06
76404;BME280;65232;48.358;2.122;2023-02-04T01:00:20;102872.00;;;8.79;83.52
76404;BME280;65232;48.358;2.122;2023-02-04T01:00:46;102875.53;;;8.79;83.33
76404;BME280;65232;48.358;2.122;2023-02-04T01:01:11;102874.72;;;8.77;83.44
76404;BME280;65232;48.358;2.122;2023-02-04T01:01:37;102878.25;;;8.78;83.39
76404;BME280;65232;48.358;2.122;2023-02-04T01:02:03;102878.25;;;8.78;83.56
76404;BME280;65232;48.358;2.122;2023-02-04T01:02:28;102872.81;;;8.81;83.25
76404;BME280;65232;48.358;2.122;2023-02-04T01:02:54;102872.00;;;8.79;83.21
76404;BME280;65232;48.358;2.122;2023-02-04T01:03:19;102875.53;;;8.79;83.22
76404;BME280;65232;48.358;2.122;2023-02-04T01:03:45;102878.25;;;8.78;83.28
76404;BME280;65232;48.358;2.122;2023-02-04T01:04:10;102874.59;;;8.80;83.24
76404;BME280;65232;48.358;2.122;2023-02-04T01:04:35;102875.47;;;8.81;83.23
76404;BME280;65232;48.358;2.122;2023-02-04T01:05:01;102873.78;;;8.78;83.24
76404;BME280;65232;48.358;2.122;2023-02-04T01:05:26;102871.13;;;8.78;83.13
76404;BME280;65232;48.358;2.122;2023-02-04T01:05:52;102871.19;;;8.77;83.08
76404;BME280;65232;48.358;2.122;2023-02-04T01:06:17;102881.00;;;8.76;83.32
76404;BME280;65232;48.358;2.122;2023-02-04T01:06:43;102874.72;;;8.77;83.20
76404;BME280;65232;48.358;2.122;2023-02-04T01:07:08;102876.53;;;8.77;83.32
76404;BME280;65232;48.358;2.122;2023-02-04T01:07:34;102873.84;;;8.77;83.29
76404;BME280;65232;48.358;2.122;2023-02-04T01:07:59;102876.47;;;8.78;83.82
76404;BME280;65232;48.358;2.122;2023-02-04T01:08:25;102874.66;;;8.79;83.30
76404;BME280;65232;48.358;2.122;2023-02-04T01:08:50;102873.78;;;8.78;82.95
76404;BME280;65232;48.358;2.122;2023-02-04T01:09:16;102877.34;;;8.79;83.20
76404;BME280;65232;48.358;2.122;2023-02-04T01:09:41;102876.41;;;8.80;82.96
76404;BME280;65232;48.358;2.122;2023-02-04T01:10:07;102878.19;;;8.79;83.05
76404;BME280;65232;48.358;2.122;2023-02-04T01:10:33;102876.41;;;8.80;83.08
76404;BME280;65232;48.358;2.122;2023-02-04T01:10:59;102876.28;;;8.83;82.88
76404;BME280;65232;48.358;2.122;2023-02-04T01:11:25;102870.88;;;8.84;83.05
76404;BME280;65232;48.358;2.122;2023-02-04T01:11:50;102870.00;;;8.84;82.93
76404;BME280;65232;48.358;2.122;2023-02-04T01:12:16;102878.94;;;8.83;82.69
76404;BME280;65232;48.358;2.122;2023-02-04T01:12:41;102875.34;;;8.84;82.73
76404;BME280;65232;48.358;2.122;2023-02-04T01:13:07;102873.59;;;8.83;82.86
76404;BME280;65232;48.358;2.122;2023-02-04T01:13:33;102867.41;;;8.82;82.99
76404;BME280;65232;48.358;2.122;2023-02-04T01:13:59;102869.88;;;8.87;82.82
76404;BME280;65232;48.358;2.122;2023-02-04T01:14:24;102872.44;;;8.90;82.90
76404;BME280;65232;48.358;2.122;2023-02-04T01:14:50;102864.47;;;8.89;82.69
76404;BME280;65232;48.358;2.122;2023-02-04T01:15:15;102874.28;;;8.88;82.68
76404;BME280;65232;48.358;2.122;2023-02-04T01:15:41;102868.91;;;8.90;82.75
76404;BME280;65232;48.358;2.122;2023-02-04T01:16:06;102873.44;;;8.88;82.51
76404;BME280;65232;48.358;2.122;2023-02-04T01:16:32;102870.81;;;8.86;82.48
76404;BME280;65232;48.358;2.122;2023-02-04T01:16:57;102871.81;;;8.83;83.10
76404;BME280;65232;48.358;2.122;2023-02-04T01:17:24;102868.91;;;8.90;82.69
76404;BME280;65232;48.358;2.122;2023-02-04T01:17:52;102869.81;;;8.89;82.59
76404;BME280;65232;48.358;2.122;2023-02-04T01:18:18;102875.09;;;8.90;82.59
76404;BME280;65232;48.358;2.122;2023-02-04T01:18:43;102872.28;;;8.93;82.62
76404;BME280;65232;48.358;2.122;2023-02-04T01:19:09;102873.88;;;8.97;82.76
76404;BME280;65232;48.358;2.122;2023-02-04T01:19:34;102875.75;;;8.95;82.67
76404;BME280;65232;48.358;2.122;2023-02-04T01:20:00;102882.94;;;8.93;82.60
76404;BME280;65232;48.358;2.122;2023-02-04T01:20:26;102874.94;;;8.93;82.70
76404;BME280;65232;48.358;2.122;2023-02-04T01:20:51;102883.88;;;8.92;82.72
76404;BME280;65232;48.358;2.122;2023-02-04T01:21:17;102875.16;;;8.89;82.58
76404;BME280;65232;48.358;2.122;2023-02-04T01:21:42;102874.22;;;8.90;82.65
76404;BME280;65232;48.358;2.122;2023-02-04T01:22:10;102874.22;;;8.90;82.49
76404;BME280;65232;48.358;2.122;2023-02-04T01:22:35;102869.81;;;8.89;82.68
76404;BME280;65232;48.358;2.122;2023-02-04T01:23:01;102877.63;;;8.93;82.81
76404;BME280;65232;48.358;2.122;2023-02-04T01:23:26;102868.59;;;8.96;82.99
76404;BME280;65232;48.358;2.122;2023-02-04T01:23:52;102870.34;;;8.97;82.44
76404;BME280;65232;48.358;2.122;2023-02-04T01:24:17;102868.59;;;8.96;82.50
76404;BME280;65232;48.358;2.122;2023-02-04T01:25:02;102867.81;;;8.94;82.56
76404;BME280;65232;48.358;2.122;2023-02-04T01:25:40;102869.41;;;8.98;82.45
76404;BME280;65232;48.358;2.122;2023-02-04T01:26:05;102862.28;;;8.98;82.14
76404;BME280;65232;48.358;2.122;2023-02-04T01:26:31;102864.06;;;8.98;82.16
76404;BME280;65232;48.358;2.122;2023-02-04T01:26:56;102862.34;;;8.97;82.30
76404;BME280;65232;48.358;2.122;2023-02-04T01:27:22;102864.31;;;8.92;82.45
76404;BME280;65232;48.358;2.122;2023-02-04T01:27:47;102861.81;;;8.89;82.59
76404;BME280;65232;48.358;2.122;2023-02-04T01:28:13;102857.47;;;8.86;82.68
76404;BME280;65232;48.358;2.122;2023-02-04T01:28:38;102860.19;;;8.84;82.68
76404;BME280;65232;48.358;2.122;2023-02-04T01:29:04;102859.25;;;8.86;82.87
76404;BME280;65232;48.358;2.122;2023-02-04T01:29:29;102856.59;;;8.86;82.86
76404;BME280;65232;48.358;2.122;2023-02-04T01:29:55;102858.41;;;8.85;82.67
76404;BME280;65232;48.358;2.122;2023-02-04T01:30:20;102857.47;;;8.86;82.88
76404;BME280;65232;48.358;2.122;2023-02-04T01:30:45;102864.59;;;8.86;82.81
76404;BME280;65232;48.358;2.122;2023-02-04T01:31:11;102860.94;;;8.88;82.81
76404;BME280;65232;48.358;2.122;2023-02-04T01:31:37;102860.88;;;8.90;82.84
76404;BME280;65232;48.358;2.122;2023-02-04T01:32:02;102864.19;;;8.95;82.92
76404;BME280;65232;48.358;2.122;2023-02-04T01:32:28;102864.41;;;8.90;82.93
76404;BME280;65232;48.358;2.122;2023-02-04T01:32:54;102864.59;;;8.86;82.90
76404;BME280;65232;48.358;2.122;2023-02-04T01:33:19;102861.06;;;8.85;83.01
76404;BME280;65232;48.358;2.122;2023-02-04T01:33:45;102868.03;;;8.89;82.85
76404;BME280;65232;48.358;2.122;2023-02-04T01:34:10;102861.75;;;8.90;82.64
76404;BME280;65232;48.358;2.122;2023-02-04T01:34:36;102870.53;;;8.92;82.80
76404;BME280;65232;48.358;2.122;2023-02-04T01:35:02;102868.91;;;8.90;82.72
76404;BME280;65232;48.358;2.122;2023-02-04T01:35:28;102871.56;;;8.90;82.94
76404;BME280;65232;48.358;2.122;2023-02-04T01:35:53;102865.25;;;8.91;82.70
76404;BME280;65232;48.358;2.122;2023-02-04T01:36:19;102870.81;;;8.86;82.83
76404;BME280;65232;48.358;2.122;2023-02-04T01:36:45;102867.09;;;8.90;82.70
76404;BME280;65232;48.358;2.122;2023-02-04T01:37:11;102865.25;;;8.91;82.73
76404;BME280;65232;48.358;2.122;2023-02-04T01:37:36;102866.22;;;8.90;82.79
76404;BME280;65232;48.358;2.122;2023-02-04T01:38:02;102867.34;;;8.84;83.02
76404;BME280;65232;48.358;2.122;2023-02-04T01:38:28;102862.94;;;8.83;82.99
76404;BME280;65232;48.358;2.122;2023-02-04T01:38:53;102865.66;;;8.81;83.23
76404;BME280;65232;48.358;2.122;2023-02-04T01:39:19;102867.47;;;8.81;83.33
76404;BME280;65232;48.358;2.122;2023-02-04T01:39:45;102870.94;;;8.83;83.28
76404;BME280;65232;48.358;2.122;2023-02-04T01:40:12;102870.88;;;8.84;82.99
76404;BME280;65232;48.358;2.122;2023-02-04T01:40:38;102872.63;;;8.86;82.96
76404;BME280;65232;48.358;2.122;2023-02-04T01:41:04;102864.59;;;8.86;82.92
76404;BME280;65232;48.358;2.122;2023-02-04T01:41:30;102869.81;;;8.89;83.00
76404;BME280;65232;48.358;2.122;2023-02-04T01:41:56;102877.69;;;8.92;82.60
76404;BME280;65232;48.358;2.122;2023-02-04T01:42:22;102872.03;;;8.99;82.77
76404;BME280;65232;48.358;2.122;2023-02-04T01:42:47;102870.41;;;8.95;82.90
76404;BME280;65232;48.358;2.122;2023-02-04T01:43:13;102866.88;;;8.95;82.81
76404;BME280;65232;48.358;2.122;2023-02-04T01:43:39;102872.22;;;8.95;82.54
76404;BME280;65232;48.358;2.122;2023-02-04T01:44:04;102868.72;;;8.93;82.64
76404;BME280;65232;48.358;2.122;2023-02-04T01:44:30;102868.03;;;8.89;82.81
76404;BME280;65232;48.358;2.122;2023-02-04T01:44:56;102868.78;;;8.91;82.74
76404;BME280;65232;48.358;2.122;2023-02-04T01:45:21;102872.34;;;8.92;82.74
76404;BME280;65232;48.358;2.122;2023-02-04T01:45:48;102870.47;;;8.94;82.80
76404;BME280;65232;48.358;2.122;2023-02-04T01:46:15;102867.16;;;8.89;82.69
76404;BME280;65232;48.358;2.122;2023-02-04T01:46:41;102868.22;;;8.84;82.84
76404;BME280;65232;48.358;2.122;2023-02-04T01:47:07;102869.06;;;8.85;83.08
76404;BME280;65232;48.358;2.122;2023-02-04T01:47:33;102866.53;;;8.82;83.15
76404;BME280;65232;48.358;2.122;2023-02-04T01:48:00;102870.81;;;8.86;83.15
76404;BME280;65232;48.358;2.122;2023-02-04T01:48:27;102871.75;;;8.85;83.08
76404;BME280;65232;48.358;2.122;2023-02-04T01:48:52;102871.75;;;8.85;83.39
76404;BME280;65232;48.358;2.122;2023-02-04T01:49:18;102878.06;;;8.82;83.28
76404;BME280;65232;48.358;2.122;2023-02-04T01:49:46;102877.22;;;8.82;83.12
76404;BME280;65232;48.358;2.122;2023-02-04T01:50:16;102873.66;;;8.81;83.19
76404;BME280;65232;48.358;2.122;2023-02-04T01:50:41;102873.53;;;8.84;83.07
76404;BME280;65232;48.358;2.122;2023-02-04T01:51:10;102883.34;;;8.84;82.91
76404;BME280;65232;48.358;2.122;2023-02-04T01:51:36;102878.88;;;8.84;83.17
76404;BME280;65232;48.358;2.122;2023-02-04T01:52:02;102879.75;;;8.85;82.97
76404;BME280;65232;48.358;2.122;2023-02-04T01:52:33;102871.75;;;8.85;83.09
76404;BME280;65232;48.358;2.122;2023-02-04T01:52:59;102873.53;;;8.84;83.11
76404;BME280;65232;48.358;2.122;2023-02-04T01:53:25;102875.34;;;8.84;83.11
76404;BME280;65232;48.358;2.122;2023-02-04T01:53:51;102876.28;;;8.83;82.96
76404;BME280;65232;48.358;2.122;2023-02-04T01:54:16;102879.63;;;8.88;83.01
76404;BME280;65232;48.358;2.122;2023-02-04T01:54:42;102885.84;;;8.89;83.01
76404;BME280;65232;48.358;2.122;2023-02-04T01:55:17;102877.09;;;8.85;83.17
76404;BME280;65232;48.358;2.122;2023-02-04T01:55:43;102883.16;;;8.89;82.88
76404;BME280;65232;48.358;2.122;2023-02-04T01:56:17;102883.16;;;8.89;82.95
76404;BME280;65232;48.358;2.122;2023-02-04T01:56:45;102885.84;;;8.89;82.92
76404;BME280;65232;48.358;2.122;2023-02-04T01:57:14;102882.25;;;8.90;83.03
76404;BME280;65232;48.358;2.122;2023-02-04T01:57:40;102883.13;;;8.90;83.04
76404;BME280;65232;48.358;2.122;2023-02-04T01:58:09;102883.16;;;8.89;83.01
76404;BME280;65232;48.358;2.122;2023-02-04T01:58:35;102879.41;;;8.93;82.85
76404;BME280;65232;48.358;2.122;2023-02-04T01:59:01;102874.81;;;8.96;82.87
76404;BME280;65232;48.358;2.122;2023-02-04T01:59:26;102881.91;;;8.97;82.80
76404;BME280;65232;48.358;2.122;2023-02-04T01:59:53;102881.03;;;8.97;82.57
76404;BME280;65232;48.358;2.122;2023-02-04T02:00:25;102874.88;;;8.95;82.60
76404;BME280;65232;48.358;2.122;2023-02-04T02:00:51;102882.91;;;8.95;83.03
76404;BME280;65232;48.358;2.122;2023-02-04T02:01:59;102881.44;;;8.88;83.14
76404;BME280;65232;48.358;2.122;2023-02-04T02:02:46;102879.75;;;8.85;83.43
76404;BME280;65232;48.358;2.122;2023-02-04T02:03:12;102870.13;;;8.81;83.49
76404;BME280;65232;48.358;2.122;2023-02-04T02:03:37;102873.66;;;8.81;83.58
76404;BME280;65232;48.358;2.122;2023-02-04T02:04:04;102878.25;;;8.78;83.65
76404;BME280;65232;48.358;2.122;2023-02-04T02:04:32;102881.00;;;8.76;83.74
76404;BME280;65232;48.358;2.122;2023-02-04T02:05:00;102878.31;;;8.76;83.69
76404;BME280;65232;48.358;2.122;2023-02-04T02:05:32;102881.69;;;8.81;83.60
76404;BME280;65232;48.358;2.122;2023-02-04T02:06:01;102879.63;;;8.88;83.27
76404;BME280;65232;48.358;2.122;2023-02-04T02:06:27;102873.47;;;8.86;83.18
76404;BME280;65232;48.358;2.122;2023-02-04T02:06:56;102882.38;;;8.87;83.17
76404;BME280;65232;48.358;2.122;2023-02-04T02:07:22;102877.91;;;8.87;83.17
76404;BME280;65232;48.358;2.122;2023-02-04T02:07:48;102874.41;;;8.85;83.29
76404;BME280;65232;48.358;2.122;2023-02-04T02:08:15;102882.50;;;8.83;83.24
76404;BME280;65232;48.358;2.122;2023-02-04T02:08:41;102877.03;;;8.87;83.27
76404;BME280;65232;48.358;2.122;2023-02-04T02:09:07;102880.75;;;8.82;83.20
76404;BME280;65232;48.358;2.122;2023-02-04T02:09:32;102878.25;;;8.78;83.43
76404;BME280;65232;48.358;2.122;2023-02-04T02:09:58;102879.00;;;8.81;83.34
76404;BME280;65232;48.358;2.122;2023-02-04T02:10:24;102874.53;;;8.82;83.38
76404;BME280;65232;48.358;2.122;2023-02-04T02:10:50;102873.59;;;8.83;83.08
76404;BME280;65232;48.358;2.122;2023-02-04T02:11:15;102881.69;;;8.81;83.18
76404;BME280;65232;48.358;2.122;2023-02-04T02:11:41;102879.06;;;8.80;83.40
76404;BME280;65232;48.358;2.122;2023-02-04T02:12:06;102873.38;;;8.89;83.23
76404;BME280;65232;48.358;2.122;2023-02-04T02:12:32;102875.09;;;9.10;82.60
76404;BME280;65232;48.358;2.122;2023-02-04T02:12:57;102874.50;;;9.04;82.37
76404;BME280;65232;48.358;2.122;2023-02-04T02:13:23;102878.25;;;9.00;82.41
76404;BME280;65232;48.358;2.122;2023-02-04T02:13:50;102876.56;;;8.97;82.58
76404;BME280;65232;48.358;2.122;2023-02-04T02:14:15;102877.50;;;8.96;82.60
76404;BME280;65232;48.358;2.122;2023-02-04T02:14:41;102880.34;;;8.92;82.49
76404;BME280;65232;48.358;2.122;2023-02-04T02:15:08;102879.34;;;8.94;82.68
76404;BME280;65232;48.358;2.122;2023-02-04T02:15:34;102874.34;;;8.87;82.73
76404;BME280;65232;48.358;2.122;2023-02-04T02:15:59;102881.69;;;8.81;82.99
76404;BME280;65232;48.358;2.122;2023-02-04T02:16:25;102870.19;;;8.79;83.31
76404;BME280;65232;48.358;2.122;2023-02-04T02:16:50;102877.28;;;8.80;83.36
76404;BME280;65232;48.358;2.122;2023-02-04T02:17:16;102875.53;;;8.79;83.67
76404;BME280;65232;48.358;2.122;2023-02-04T02:17:42;102877.22;;;8.82;83.54
76404;BME280;65232;48.358;2.122;2023-02-04T02:18:09;102879.00;;;8.81;83.38
76404;BME280;65232;48.358;2.122;2023-02-04T02:18:34;102879.00;;;8.81;83.52
76404;BME280;65232;48.358;2.122;2023-02-04T02:19:00;102879.75;;;8.85;83.34